This is the latest recevied weather packets stored in our database for station/object N5UKZ-WX. If no packets are shown the sender has not sent any weather packets the latest 10 day(s).
| Time | Temp. | Humidity | Pressure | Rain* | Wind** | Luminosity | Snow |
|---|---|---|---|---|---|---|---|
| 1777942325 | 22.78° C | 57% | 1012.9 hPa | 0 mm | - | - | - |
| 1777941424 | 23.33° C | 55% | 1012.6 hPa | 0 mm | - | - | - |
| 1777940524 | 23.89° C | 53% | 1012.9 hPa | 0 mm | - | - | - |
| 1777939624 | 24.44° C | 51% | 1012.9 hPa | 0 mm | - | - | - |
| 1777938724 | 25° C | 50% | 1012.9 hPa | 0 mm | - | - | - |
| 1777936023 | 26.11° C | 45% | 1012.9 hPa | 0 mm | - | - | - |
| 1777935123 | 27.22° C | 45% | 1012.9 hPa | 0 mm | - | - | - |
| 1777934223 | 27.78° C | 44% | 1013.2 hPa | 0 mm | - | - | - |
| 1777933323 | 28.33° C | 43% | 1013.2 hPa | 0 mm | - | - | - |
| 1777932422 | 29.44° C | 43% | 1013.2 hPa | 0 mm | - | - | - |
| 1777931522 | 29.44° C | 42% | 1013.6 hPa | 0 mm | - | - | - |
| 1777930622 | 29.44° C | 44% | 1013.6 hPa | 0 mm | - | - | - |
| 1777929722 | 29.44° C | 43% | 1013.6 hPa | 0 mm | - | - | - |
| 1777928822 | 30° C | 43% | 1013.9 hPa | 0 mm | - | - | - |
| 1777927922 | 29.44° C | 44% | 1014.6 hPa | 0 mm | - | - | - |
| 1777927021 | 30° C | 43% | 1014.6 hPa | 0 mm | - | - | - |
| 1777926121 | 30° C | 43% | 1014.9 hPa | 0 mm | - | - | - |
| 1777925221 | 30° C | 43% | 1014.9 hPa | 0 mm | - | - | - |
| 1777924321 | 30° C | 44% | 1015.3 hPa | 0 mm | - | - | - |
| 1777923421 | 29.44° C | 44% | 1015.6 hPa | 0 mm | - | - | - |
| 1777922520 | 29.44° C | 45% | 1016 hPa | 0 mm | - | - | - |
| 1777921620 | 28.89° C | 45% | 1016 hPa | 0 mm | - | - | - |
| 1777920720 | 29.44° C | 44% | 1016.3 hPa | 0 mm | - | - | - |
| 1777919820 | 29.44° C | 46% | 1016.3 hPa | 0 mm | - | - | - |
| 1777918919 | 28.33° C | 46% | 1016.6 hPa | 0 mm | - | - | - |
* Rain latest hour (hover to see other rain measurements)
** Current wind speed in m/s (hover to see current wind gust speed)